Whaley Lake, New York
Current Conditions -  °F | °C
As of 4:53 AM on Monday 22 Dec 2014 (Local Time) from KPOU Reporting Station
Overcast Overcast  
Wind Chill: 32°   Ceiling: 1200
Heat Index: 32°   Visibility: 9mi
Dew Point: 27°   Wind: 3mph
Humidity: 82%   Direction: 360°N
Pressure: 30.34"   Gusts: NA
Location:  41.5306°N, 73.6674°W
Report Text: KPOU 220953Z AUTO 36003KT 9SM OVC012 00/M03 A3034 RMK AO2 SLP272 T00001028 TSNO
Loading
Personal Weather Stations






























Interactive Weather Map New forecast layout! Learn more

10-Day Weather Forecast

Advertisements
Track Severe Weather on mobile